sensor_id;sensor_type;location;lat;lon;timestamp;P1;durP1;ratioP1;P2;durP2;ratioP2
23434;SDS011;11890;45.380;11.028;2023-08-08T00:01:24;1.38;;;0.52;;
23434;SDS011;11890;45.380;11.028;2023-08-08T00:03:52;3.42;;;0.73;;
23434;SDS011;11890;45.380;11.028;2023-08-08T00:06:20;1.77;;;0.88;;
23434;SDS011;11890;45.380;11.028;2023-08-08T00:08:48;4.07;;;0.68;;
23434;SDS011;11890;45.380;11.028;2023-08-08T00:11:15;3.58;;;0.70;;
23434;SDS011;11890;45.380;11.028;2023-08-08T00:13:43;1.65;;;0.70;;
23434;SDS011;11890;45.380;11.028;2023-08-08T00:16:11;2.38;;;0.90;;
23434;SDS011;11890;45.380;11.028;2023-08-08T00:18:39;2.30;;;0.52;;
23434;SDS011;11890;45.380;11.028;2023-08-08T00:21:06;11.18;;;1.05;;
23434;SDS011;11890;45.380;11.028;2023-08-08T00:23:34;2.78;;;0.93;;
23434;SDS011;11890;45.380;11.028;2023-08-08T00:26:02;2.03;;;1.13;;
23434;SDS011;11890;45.380;11.028;2023-08-08T00:28:29;1.98;;;0.73;;
23434;SDS011;11890;45.380;11.028;2023-08-08T00:30:57;1.98;;;0.70;;
23434;SDS011;11890;45.380;11.028;2023-08-08T00:33:25;2.10;;;0.75;;
23434;SDS011;11890;45.380;11.028;2023-08-08T00:35:53;2.97;;;0.77;;
23434;SDS011;11890;45.380;11.028;2023-08-08T00:38:20;2.22;;;0.80;;
23434;SDS011;11890;45.380;11.028;2023-08-08T00:40:48;1.60;;;0.70;;
23434;SDS011;11890;45.380;11.028;2023-08-08T00:43:16;2.25;;;0.60;;
23434;SDS011;11890;45.380;11.028;2023-08-08T00:45:44;2.70;;;0.80;;
23434;SDS011;11890;45.380;11.028;2023-08-08T00:48:12;5.63;;;0.80;;
23434;SDS011;11890;45.380;11.028;2023-08-08T00:50:42;3.67;;;0.82;;
23434;SDS011;11890;45.380;11.028;2023-08-08T00:53:11;1.50;;;0.70;;
23434;SDS011;11890;45.380;11.028;2023-08-08T00:55:39;1.70;;;0.73;;
23434;SDS011;11890;45.380;11.028;2023-08-08T00:58:07;1.85;;;0.73;;
23434;SDS011;11890;45.380;11.028;2023-08-08T01:00:35;1.05;;;0.57;;
23434;SDS011;11890;45.380;11.028;2023-08-08T01:03:04;1.75;;;0.63;;
23434;SDS011;11890;45.380;11.028;2023-08-08T01:05:33;1.40;;;0.80;;
23434;SDS011;11890;45.380;11.028;2023-08-08T01:08:04;2.13;;;0.75;;
23434;SDS011;11890;45.380;11.028;2023-08-08T01:10:39;1.30;;;0.68;;
23434;SDS011;11890;45.380;11.028;2023-08-08T01:13:17;3.15;;;0.82;;
23434;SDS011;11890;45.380;11.028;2023-08-08T01:15:46;2.13;;;0.70;;
23434;SDS011;11890;45.380;11.028;2023-08-08T01:18:16;1.33;;;0.60;;
23434;SDS011;11890;45.380;11.028;2023-08-08T01:20:44;2.35;;;1.00;;
23434;SDS011;11890;45.380;11.028;2023-08-08T01:25:49;4.32;;;0.85;;
23434;SDS011;11890;45.380;11.028;2023-08-08T01:28:20;2.45;;;0.77;;
23434;SDS011;11890;45.380;11.028;2023-08-08T01:30:51;2.58;;;0.80;;
23434;SDS011;11890;45.380;11.028;2023-08-08T01:33:20;4.30;;;0.82;;
23434;SDS011;11890;45.380;11.028;2023-08-08T01:35:56;2.90;;;0.90;;
23434;SDS011;11890;45.380;11.028;2023-08-08T01:38:31;2.30;;;0.80;;
23434;SDS011;11890;45.380;11.028;2023-08-08T01:40:59;1.83;;;0.70;;
23434;SDS011;11890;45.380;11.028;2023-08-08T01:43:27;2.50;;;0.80;;
23434;SDS011;11890;45.380;11.028;2023-08-08T01:45:55;3.20;;;0.80;;
23434;SDS011;11890;45.380;11.028;2023-08-08T01:48:23;4.63;;;0.93;;
23434;SDS011;11890;45.380;11.028;2023-08-08T01:50:51;1.77;;;0.70;;
23434;SDS011;11890;45.380;11.028;2023-08-08T01:53:18;3.38;;;1.15;;
23434;SDS011;11890;45.380;11.028;2023-08-08T01:55:46;2.35;;;0.80;;
23434;SDS011;11890;45.380;11.028;2023-08-08T01:58:14;2.03;;;0.80;;
23434;SDS011;11890;45.380;11.028;2023-08-08T02:00:42;1.83;;;0.73;;
23434;SDS011;11890;45.380;11.028;2023-08-08T02:03:11;4.22;;;0.80;;
23434;SDS011;11890;45.380;11.028;2023-08-08T02:05:39;1.20;;;0.82;;
23434;SDS011;11890;45.380;11.028;2023-08-08T02:08:07;1.50;;;0.80;;
23434;SDS011;11890;45.380;11.028;2023-08-08T02:10:35;2.53;;;0.95;;
23434;SDS011;11890;45.380;11.028;2023-08-08T02:13:03;1.85;;;0.82;;
23434;SDS011;11890;45.380;11.028;2023-08-08T02:15:31;2.25;;;0.80;;
23434;SDS011;11890;45.380;11.028;2023-08-08T02:17:59;2.47;;;1.02;;
23434;SDS011;11890;45.380;11.028;2023-08-08T02:20:27;2.47;;;0.70;;
23434;SDS011;11890;45.380;11.028;2023-08-08T02:22:56;3.45;;;0.90;;
23434;SDS011;11890;45.380;11.028;2023-08-08T02:25:24;2.30;;;0.70;;
23434;SDS011;11890;45.380;11.028;2023-08-08T02:27:51;1.20;;;0.60;;
23434;SDS011;11890;45.380;11.028;2023-08-08T02:30:19;3.25;;;0.90;;
23434;SDS011;11890;45.380;11.028;2023-08-08T02:32:47;3.92;;;0.70;;
23434;SDS011;11890;45.380;11.028;2023-08-08T02:35:15;2.15;;;0.55;;
23434;SDS011;11890;45.380;11.028;2023-08-08T02:37:43;2.53;;;0.70;;
23434;SDS011;11890;45.380;11.028;2023-08-08T02:40:10;2.92;;;0.43;;
23434;SDS011;11890;45.380;11.028;2023-08-08T02:42:38;2.03;;;0.50;;
23434;SDS011;11890;45.380;11.028;2023-08-08T02:45:07;0.98;;;0.52;;
23434;SDS011;11890;45.380;11.028;2023-08-08T02:47:35;5.22;;;0.80;;
23434;SDS011;11890;45.380;11.028;2023-08-08T02:50:02;3.53;;;0.80;;
23434;SDS011;11890;45.380;11.028;2023-08-08T02:52:31;1.80;;;0.52;;
23434;SDS011;11890;45.380;11.028;2023-08-08T02:54:58;1.58;;;0.43;;
23434;SDS011;11890;45.380;11.028;2023-08-08T02:57:26;1.23;;;0.50;;
23434;SDS011;11890;45.380;11.028;2023-08-08T02:59:55;1.48;;;0.60;;
23434;SDS011;11890;45.380;11.028;2023-08-08T03:02:22;1.60;;;0.45;;
23434;SDS011;11890;45.380;11.028;2023-08-08T03:04:51;1.05;;;0.57;;
23434;SDS011;11890;45.380;11.028;2023-08-08T03:07:22;2.08;;;0.70;;
23434;SDS011;11890;45.380;11.028;2023-08-08T03:09:49;1.10;;;0.47;;
23434;SDS011;11890;45.380;11.028;2023-08-08T03:12:17;0.93;;;0.20;;
23434;SDS011;11890;45.380;11.028;2023-08-08T03:14:46;0.52;;;0.22;;
23434;SDS011;11890;45.380;11.028;2023-08-08T03:17:13;1.02;;;0.50;;
23434;SDS011;11890;45.380;11.028;2023-08-08T03:19:41;1.10;;;0.55;;
23434;SDS011;11890;45.380;11.028;2023-08-08T03:22:09;0.95;;;0.55;;
23434;SDS011;11890;45.380;11.028;2023-08-08T03:24:37;3.65;;;0.63;;
23434;SDS011;11890;45.380;11.028;2023-08-08T03:27:05;4.68;;;0.70;;
23434;SDS011;11890;45.380;11.028;2023-08-08T03:29:34;3.17;;;0.55;;
23434;SDS011;11890;45.380;11.028;2023-08-08T03:32:02;1.45;;;0.75;;
23434;SDS011;11890;45.380;11.028;2023-08-08T03:34:31;5.85;;;0.80;;
23434;SDS011;11890;45.380;11.028;2023-08-08T03:37:00;4.75;;;0.65;;
23434;SDS011;11890;45.380;11.028;2023-08-08T03:39:27;0.88;;;0.40;;
23434;SDS011;11890;45.380;11.028;2023-08-08T03:41:55;2.72;;;0.52;;
23434;SDS011;11890;45.380;11.028;2023-08-08T03:44:24;2.75;;;0.57;;
23434;SDS011;11890;45.380;11.028;2023-08-08T03:46:52;1.65;;;0.50;;
23434;SDS011;11890;45.380;11.028;2023-08-08T03:49:35;1.15;;;0.40;;
23434;SDS011;11890;45.380;11.028;2023-08-08T03:52:03;2.22;;;0.45;;
23434;SDS011;11890;45.380;11.028;2023-08-08T03:54:31;2.03;;;0.50;;
23434;SDS011;11890;45.380;11.028;2023-08-08T03:56:58;1.35;;;0.43;;
23434;SDS011;11890;45.380;11.028;2023-08-08T03:59:27;1.45;;;0.60;;
23434;SDS011;11890;45.380;11.028;2023-08-08T04:01:55;3.58;;;0.75;;
23434;SDS011;11890;45.380;11.028;2023-08-08T04:04:23;3.30;;;0.70;;
23434;SDS011;11890;45.380;11.028;2023-08-08T04:06:51;1.45;;;0.60;;
23434;SDS011;11890;45.380;11.028;2023-08-08T04:09:19;1.70;;;0.70;;
23434;SDS011;11890;45.380;11.028;2023-08-08T04:11:46;2.97;;;0.60;;
23434;SDS011;11890;45.380;11.028;2023-08-08T04:14:14;1.00;;;0.60;;
23434;SDS011;11890;45.380;11.028;2023-08-08T04:16:42;6.55;;;0.57;;
23434;SDS011;11890;45.380;11.028;2023-08-08T04:19:09;3.25;;;0.70;;
23434;SDS011;11890;45.380;11.028;2023-08-08T04:21:37;2.17;;;0.85;;
23434;SDS011;11890;45.380;11.028;2023-08-08T04:24:05;2.15;;;0.63;;
23434;SDS011;11890;45.380;11.028;2023-08-08T04:26:34;3.20;;;0.88;;
23434;SDS011;11890;45.380;11.028;2023-08-08T04:29:02;1.90;;;0.47;;
23434;SDS011;11890;45.380;11.028;2023-08-08T04:31:30;2.17;;;0.60;;
23434;SDS011;11890;45.380;11.028;2023-08-08T04:33:58;1.58;;;0.60;;
23434;SDS011;11890;45.380;11.028;2023-08-08T04:36:28;2.45;;;0.73;;
23434;SDS011;11890;45.380;11.028;2023-08-08T04:38:56;5.30;;;1.00;;
23434;SDS011;11890;45.380;11.028;2023-08-08T04:41:24;4.95;;;1.15;;
23434;SDS011;11890;45.380;11.028;2023-08-08T04:43:51;5.95;;;1.85;;
23434;SDS011;11890;45.380;11.028;2023-08-08T04:46:19;6.55;;;2.78;;
23434;SDS011;11890;45.380;11.028;2023-08-08T04:48:52;2.15;;;0.80;;
23434;SDS011;11890;45.380;11.028;2023-08-08T04:51:21;2.58;;;0.80;;
23434;SDS011;11890;45.380;11.028;2023-08-08T04:53:49;16.08;;;11.18;;
23434;SDS011;11890;45.380;11.028;2023-08-08T04:56:17;10.93;;;7.88;;
23434;SDS011;11890;45.380;11.028;2023-08-08T04:58:45;31.67;;;22.50;;
23434;SDS011;11890;45.380;11.028;2023-08-08T05:01:12;15.35;;;10.57;;
23434;SDS011;11890;45.380;11.028;2023-08-08T05:03:42;1.60;;;0.70;;
23434;SDS011;11890;45.380;11.028;2023-08-08T05:06:10;2.85;;;0.57;;
23434;SDS011;11890;45.380;11.028;2023-08-08T05:08:38;2.33;;;1.27;;
23434;SDS011;11890;45.380;11.028;2023-08-08T05:11:06;4.57;;;1.45;;
23434;SDS011;11890;45.380;11.028;2023-08-08T05:13:33;6.55;;;1.80;;
23434;SDS011;11890;45.380;11.028;2023-08-08T05:16:01;5.70;;;1.13;;
23434;SDS011;11890;45.380;11.028;2023-08-08T05:18:29;9.32;;;1.80;;
23434;SDS011;11890;45.380;11.028;2023-08-08T05:20:57;9.50;;;2.80;;
23434;SDS011;11890;45.380;11.028;2023-08-08T05:23:24;5.05;;;1.75;;
23434;SDS011;11890;45.380;11.028;2023-08-08T05:25:52;9.10;;;4.07;;
23434;SDS011;11890;45.380;11.028;2023-08-08T05:28:20;6.75;;;1.10;;
23434;SDS011;11890;45.380;11.028;2023-08-08T05:30:48;3.88;;;0.93;;
23434;SDS011;11890;45.380;11.028;2023-08-08T05:33:16;3.72;;;0.75;;
23434;SDS011;11890;45.380;11.028;2023-08-08T05:35:44;1.77;;;0.80;;
23434;SDS011;11890;45.380;11.028;2023-08-08T05:38:11;3.30;;;1.55;;
23434;SDS011;11890;45.380;11.028;2023-08-08T05:40:39;26.83;;;18.77;;
23434;SDS011;11890;45.380;11.028;2023-08-08T05:43:07;29.52;;;20.80;;
23434;SDS011;11890;45.380;11.028;2023-08-08T05:45:34;17.65;;;13.15;;
23434;SDS011;11890;45.380;11.028;2023-08-08T05:48:02;3.33;;;0.90;;
23434;SDS011;11890;45.380;11.028;2023-08-08T05:50:30;2.38;;;0.77;;
23434;SDS011;11890;45.380;11.028;2023-08-08T05:52:59;1.05;;;0.40;;
23434;SDS011;11890;45.380;11.028;2023-08-08T05:55:27;3.00;;;0.68;;
23434;SDS011;11890;45.380;11.028;2023-08-08T05:57:55;3.28;;;0.60;;
23434;SDS011;11890;45.380;11.028;2023-08-08T06:00:23;4.88;;;0.73;;
23434;SDS011;11890;45.380;11.028;2023-08-08T06:02:50;2.30;;;0.40;;
23434;SDS011;11890;45.380;11.028;2023-08-08T06:05:19;2.05;;;0.40;;
23434;SDS011;11890;45.380;11.028;2023-08-08T06:07:48;4.57;;;0.57;;
23434;SDS011;11890;45.380;11.028;2023-08-08T06:10:16;2.72;;;0.50;;
23434;SDS011;11890;45.380;11.028;2023-08-08T06:12:44;2.35;;;0.70;;
23434;SDS011;11890;45.380;11.028;2023-08-08T06:15:12;3.75;;;0.55;;
23434;SDS011;11890;45.380;11.028;2023-08-08T06:17:40;5.03;;;0.80;;
23434;SDS011;11890;45.380;11.028;2023-08-08T06:20:07;3.50;;;1.00;;
23434;SDS011;11890;45.380;11.028;2023-08-08T06:22:36;1.45;;;0.60;;
23434;SDS011;11890;45.380;11.028;2023-08-08T06:25:05;2.78;;;0.70;;
23434;SDS011;11890;45.380;11.028;2023-08-08T06:27:33;0.85;;;0.43;;
23434;SDS011;11890;45.380;11.028;2023-08-08T06:30:01;3.92;;;0.77;;
23434;SDS011;11890;45.380;11.028;2023-08-08T06:32:29;3.80;;;0.60;;
23434;SDS011;11890;45.380;11.028;2023-08-08T06:34:57;1.58;;;0.55;;
23434;SDS011;11890;45.380;11.028;2023-08-08T06:37:25;1.95;;;0.52;;
23434;SDS011;11890;45.380;11.028;2023-08-08T06:39:53;1.83;;;0.40;;
23434;SDS011;11890;45.380;11.028;2023-08-08T06:42:21;1.35;;;0.40;;
23434;SDS011;11890;45.380;11.028;2023-08-08T06:44:56;3.45;;;0.40;;
23434;SDS011;11890;45.380;11.028;2023-08-08T06:47:23;1.13;;;0.40;;
23434;SDS011;11890;45.380;11.028;2023-08-08T06:49:51;1.88;;;0.30;;
23434;SDS011;11890;45.380;11.028;2023-08-08T06:52:19;1.33;;;0.47;;
23434;SDS011;11890;45.380;11.028;2023-08-08T06:54:47;0.88;;;0.30;;
23434;SDS011;11890;45.380;11.028;2023-08-08T06:57:15;1.65;;;0.70;;
23434;SDS011;11890;45.380;11.028;2023-08-08T06:59:42;1.27;;;0.30;;
23434;SDS011;11890;45.380;11.028;2023-08-08T07:02:10;2.15;;;0.60;;
23434;SDS011;11890;45.380;11.028;2023-08-08T07:04:38;1.25;;;0.30;;
23434;SDS011;11890;45.380;11.028;2023-08-08T07:07:06;3.03;;;0.70;;
23434;SDS011;11890;45.380;11.028;2023-08-08T07:09:33;3.33;;;0.60;;
23434;SDS011;11890;45.380;11.028;2023-08-08T07:12:01;2.05;;;0.50;;
23434;SDS011;11890;45.380;11.028;2023-08-08T07:14:29;0.90;;;0.40;;
23434;SDS011;11890;45.380;11.028;2023-08-08T07:16:57;0.85;;;0.28;;
23434;SDS011;11890;45.380;11.028;2023-08-08T07:19:25;1.30;;;0.63;;
23434;SDS011;11890;45.380;11.028;2023-08-08T07:21:53;4.10;;;0.60;;
23434;SDS011;11890;45.380;11.028;2023-08-08T07:24:21;1.25;;;0.50;;
23434;SDS011;11890;45.380;11.028;2023-08-08T07:26:49;0.98;;;0.40;;
23434;SDS011;11890;45.380;11.028;2023-08-08T07:29:17;6.03;;;1.23;;
23434;SDS011;11890;45.380;11.028;2023-08-08T07:31:45;1.00;;;0.43;;
23434;SDS011;11890;45.380;11.028;2023-08-08T07:34:12;2.08;;;0.40;;
23434;SDS011;11890;45.380;11.028;2023-08-08T07:36:40;3.33;;;0.50;;
23434;SDS011;11890;45.380;11.028;2023-08-08T07:39:08;0.95;;;0.40;;
23434;SDS011;11890;45.380;11.028;2023-08-08T07:41:36;1.58;;;0.40;;
23434;SDS011;11890;45.380;11.028;2023-08-08T07:44:04;1.50;;;0.30;;
23434;SDS011;11890;45.380;11.028;2023-08-08T07:46:32;2.10;;;0.40;;
23434;SDS011;11890;45.380;11.028;2023-08-08T07:49:00;1.58;;;0.20;;
23434;SDS011;11890;45.380;11.028;2023-08-08T07:51:30;5.05;;;0.60;;
23434;SDS011;11890;45.380;11.028;2023-08-08T07:53:58;2.90;;;0.40;;
23434;SDS011;11890;45.380;11.028;2023-08-08T07:56:27;2.58;;;0.60;;
23434;SDS011;11890;45.380;11.028;2023-08-08T07:58:55;2.78;;;0.50;;
23434;SDS011;11890;45.380;11.028;2023-08-08T08:01:23;2.38;;;0.30;;
23434;SDS011;11890;45.380;11.028;2023-08-08T08:03:52;2.30;;;0.40;;
23434;SDS011;11890;45.380;11.028;2023-08-08T08:06:19;3.30;;;0.50;;
23434;SDS011;11890;45.380;11.028;2023-08-08T08:08:47;2.80;;;0.40;;
23434;SDS011;11890;45.380;11.028;2023-08-08T08:11:15;2.63;;;0.40;;
23434;SDS011;11890;45.380;11.028;2023-08-08T08:13:46;1.00;;;0.40;;
23434;SDS011;11890;45.380;11.028;2023-08-08T08:16:14;0.82;;;0.43;;
23434;SDS011;11890;45.380;11.028;2023-08-08T08:18:47;0.88;;;0.47;;
23434;SDS011;11890;45.380;11.028;2023-08-08T08:21:25;3.03;;;0.63;;
23434;SDS011;11890;45.380;11.028;2023-08-08T08:24:08;1.65;;;0.40;;
23434;SDS011;11890;45.380;11.028;2023-08-08T08:26:36;3.90;;;0.50;;
23434;SDS011;11890;45.380;11.028;2023-08-08T08:29:04;2.35;;;0.40;;
23434;SDS011;11890;45.380;11.028;2023-08-08T08:31:32;4.43;;;0.60;;
23434;SDS011;11890;45.380;11.028;2023-08-08T08:34:00;2.80;;;0.40;;
23434;SDS011;11890;45.380;11.028;2023-08-08T08:36:28;1.17;;;0.55;;
23434;SDS011;11890;45.380;11.028;2023-08-08T08:38:55;1.33;;;0.52;;
23434;SDS011;11890;45.380;11.028;2023-08-08T08:41:25;1.17;;;0.50;;
23434;SDS011;11890;45.380;11.028;2023-08-08T08:43:53;1.33;;;0.50;;
23434;SDS011;11890;45.380;11.028;2023-08-08T08:46:21;2.28;;;0.60;;
23434;SDS011;11890;45.380;11.028;2023-08-08T08:48:49;1.27;;;0.45;;
23434;SDS011;11890;45.380;11.028;2023-08-08T08:51:18;2.30;;;0.60;;
23434;SDS011;11890;45.380;11.028;2023-08-08T08:53:46;2.28;;;0.75;;
23434;SDS011;11890;45.380;11.028;2023-08-08T08:56:14;1.30;;;0.52;;
23434;SDS011;11890;45.380;11.028;2023-08-08T08:58:43;4.03;;;0.70;;
23434;SDS011;11890;45.380;11.028;2023-08-08T09:01:11;2.75;;;0.50;;
23434;SDS011;11890;45.380;11.028;2023-08-08T09:03:40;0.93;;;0.43;;
23434;SDS011;11890;45.380;11.028;2023-08-08T09:06:09;1.20;;;0.40;;
23434;SDS011;11890;45.380;11.028;2023-08-08T09:08:37;2.72;;;0.50;;
23434;SDS011;11890;45.380;11.028;2023-08-08T09:11:05;1.48;;;0.50;;
23434;SDS011;11890;45.380;11.028;2023-08-08T09:13:35;2.88;;;0.60;;
23434;SDS011;11890;45.380;11.028;2023-08-08T09:16:05;3.03;;;0.80;;
23434;SDS011;11890;45.380;11.028;2023-08-08T09:18:33;2.70;;;0.50;;
23434;SDS011;11890;45.380;11.028;2023-08-08T09:21:01;1.85;;;0.65;;
23434;SDS011;11890;45.380;11.028;2023-08-08T09:23:29;1.42;;;0.57;;
23434;SDS011;11890;45.380;11.028;2023-08-08T09:25:57;1.63;;;0.47;;
23434;SDS011;11890;45.380;11.028;2023-08-08T09:28:25;1.80;;;0.60;;
23434;SDS011;11890;45.380;11.028;2023-08-08T09:30:53;2.30;;;0.55;;
23434;SDS011;11890;45.380;11.028;2023-08-08T09:33:21;1.15;;;0.52;;
23434;SDS011;11890;45.380;11.028;2023-08-08T09:35:48;1.90;;;0.60;;
23434;SDS011;11890;45.380;11.028;2023-08-08T09:38:16;4.53;;;0.70;;
23434;SDS011;11890;45.380;11.028;2023-08-08T09:40:44;2.05;;;0.60;;
23434;SDS011;11890;45.380;11.028;2023-08-08T09:43:12;2.25;;;0.50;;
23434;SDS011;11890;45.380;11.028;2023-08-08T09:45:40;1.83;;;0.40;;
23434;SDS011;11890;45.380;11.028;2023-08-08T09:48:11;1.38;;;0.45;;
23434;SDS011;11890;45.380;11.028;2023-08-08T09:50:39;2.38;;;0.70;;
23434;SDS011;11890;45.380;11.028;2023-08-08T09:53:08;1.88;;;0.60;;
23434;SDS011;11890;45.380;11.028;2023-08-08T09:55:36;0.57;;;0.38;;
23434;SDS011;11890;45.380;11.028;2023-08-08T09:58:04;1.13;;;0.52;;
23434;SDS011;11890;45.380;11.028;2023-08-08T10:00:32;2.42;;;0.68;;
23434;SDS011;11890;45.380;11.028;2023-08-08T10:03:01;3.38;;;0.68;;
23434;SDS011;11890;45.380;11.028;2023-08-08T10:05:29;3.95;;;0.68;;
23434;SDS011;11890;45.380;11.028;2023-08-08T10:07:59;1.40;;;0.40;;
23434;SDS011;11890;45.380;11.028;2023-08-08T10:10:28;1.48;;;0.80;;
23434;SDS011;11890;45.380;11.028;2023-08-08T10:12:57;2.78;;;0.70;;
23434;SDS011;11890;45.380;11.028;2023-08-08T10:15:25;5.60;;;1.17;;
23434;SDS011;11890;45.380;11.028;2023-08-08T10:17:57;4.22;;;0.73;;
23434;SDS011;11890;45.380;11.028;2023-08-08T10:20:25;1.15;;;0.45;;
23434;SDS011;11890;45.380;11.028;2023-08-08T10:22:53;1.48;;;0.52;;
23434;SDS011;11890;45.380;11.028;2023-08-08T10:25:26;2.55;;;0.52;;
23434;SDS011;11890;45.380;11.028;2023-08-08T10:28:04;4.47;;;0.70;;
23434;SDS011;11890;45.380;11.028;2023-08-08T10:30:55;1.58;;;0.45;;
23434;SDS011;11890;45.380;11.028;2023-08-08T10:36:12;3.13;;;0.60;;
23434;SDS011;11890;45.380;11.028;2023-08-08T10:41:09;1.40;;;0.60;;
23434;SDS011;11890;45.380;11.028;2023-08-08T10:43:45;1.52;;;0.80;;
23434;SDS011;11890;45.380;11.028;2023-08-08T10:46:14;2.58;;;0.88;;
23434;SDS011;11890;45.380;11.028;2023-08-08T10:48:50;2.22;;;0.68;;
23434;SDS011;11890;45.380;11.028;2023-08-08T10:51:18;1.73;;;0.63;;
23434;SDS011;11890;45.380;11.028;2023-08-08T10:53:46;4.63;;;0.90;;
23434;SDS011;11890;45.380;11.028;2023-08-08T10:56:18;2.05;;;0.50;;
23434;SDS011;11890;45.380;11.028;2023-08-08T10:58:49;1.85;;;0.57;;
23434;SDS011;11890;45.380;11.028;2023-08-08T11:01:16;0.80;;;0.45;;
23434;SDS011;11890;45.380;11.028;2023-08-08T11:03:45;2.03;;;0.60;;
23434;SDS011;11890;45.380;11.028;2023-08-08T11:06:16;1.80;;;0.50;;
23434;SDS011;11890;45.380;11.028;2023-08-08T11:08:45;2.55;;;0.52;;
23434;SDS011;11890;45.380;11.028;2023-08-08T11:11:20;4.05;;;1.05;;
23434;SDS011;11890;45.380;11.028;2023-08-08T11:13:50;4.72;;;0.70;;
23434;SDS011;11890;45.380;11.028;2023-08-08T11:16:18;4.15;;;0.80;;
23434;SDS011;11890;45.380;11.028;2023-08-08T11:18:46;2.15;;;0.52;;
23434;SDS011;11890;45.380;11.028;2023-08-08T11:21:15;2.55;;;0.73;;
23434;SDS011;11890;45.380;11.028;2023-08-08T11:23:45;3.58;;;0.40;;
23434;SDS011;11890;45.380;11.028;2023-08-08T11:26:14;1.15;;;0.40;;
23434;SDS011;11890;45.380;11.028;2023-08-08T11:28:51;2.95;;;0.60;;
23434;SDS011;11890;45.380;11.028;2023-08-08T11:31:19;4.10;;;0.60;;
23434;SDS011;11890;45.380;11.028;2023-08-08T11:33:52;1.98;;;0.60;;
23434;SDS011;11890;45.380;11.028;2023-08-08T11:36:20;2.42;;;0.50;;
23434;SDS011;11890;45.380;11.028;2023-08-08T11:38:49;2.92;;;1.13;;
23434;SDS011;11890;45.380;11.028;2023-08-08T11:41:19;6.97;;;1.48;;
23434;SDS011;11890;45.380;11.028;2023-08-08T11:43:48;2.10;;;1.33;;
23434;SDS011;11890;45.380;11.028;2023-08-08T11:46:17;3.28;;;1.30;;
23434;SDS011;11890;45.380;11.028;2023-08-08T11:48:48;2.97;;;0.95;;
23434;SDS011;11890;45.380;11.028;2023-08-08T11:51:16;2.60;;;0.80;;
23434;SDS011;11890;45.380;11.028;2023-08-08T11:53:50;1.67;;;0.80;;
23434;SDS011;11890;45.380;11.028;2023-08-08T11:56:19;2.53;;;0.70;;
23434;SDS011;11890;45.380;11.028;2023-08-08T11:58:47;2.03;;;0.80;;
23434;SDS011;11890;45.380;11.028;2023-08-08T12:01:21;1.35;;;0.70;;
23434;SDS011;11890;45.380;11.028;2023-08-08T12:03:49;2.50;;;0.63;;
23434;SDS011;11890;45.380;11.028;2023-08-08T12:06:17;3.03;;;0.50;;
23434;SDS011;11890;45.380;11.028;2023-08-08T12:08:46;1.58;;;0.50;;
23434;SDS011;11890;45.380;11.028;2023-08-08T12:11:14;1.02;;;0.40;;
23434;SDS011;11890;45.380;11.028;2023-08-08T12:13:43;1.92;;;0.73;;
23434;SDS011;11890;45.380;11.028;2023-08-08T12:16:12;2.35;;;0.40;;
23434;SDS011;11890;45.380;11.028;2023-08-08T12:18:57;2.30;;;0.60;;
23434;SDS011;11890;45.380;11.028;2023-08-08T12:21:50;0.95;;;0.30;;
23434;SDS011;11890;45.380;11.028;2023-08-08T12:24:18;2.67;;;0.60;;
23434;SDS011;11890;45.380;11.028;2023-08-08T12:26:57;2.03;;;0.60;;
23434;SDS011;11890;45.380;11.028;2023-08-08T12:29:25;3.15;;;0.63;;
23434;SDS011;11890;45.380;11.028;2023-08-08T12:31:53;2.83;;;0.77;;
23434;SDS011;11890;45.380;11.028;2023-08-08T12:34:21;1.65;;;0.52;;
23434;SDS011;11890;45.380;11.028;2023-08-08T12:36:50;1.85;;;0.77;;
23434;SDS011;11890;45.380;11.028;2023-08-08T12:39:17;6.82;;;0.80;;
23434;SDS011;11890;45.380;11.028;2023-08-08T12:41:45;4.13;;;2.25;;
23434;SDS011;11890;45.380;11.028;2023-08-08T12:44:13;3.13;;;0.80;;
23434;SDS011;11890;45.380;11.028;2023-08-08T12:49:48;1.10;;;0.50;;
23434;SDS011;11890;45.380;11.028;2023-08-08T12:52:18;1.38;;;0.75;;
23434;SDS011;11890;45.380;11.028;2023-08-08T12:54:52;1.15;;;0.60;;
23434;SDS011;11890;45.380;11.028;2023-08-08T12:57:20;2.28;;;0.50;;
23434;SDS011;11890;45.380;11.028;2023-08-08T12:59:48;1.15;;;0.60;;
23434;SDS011;11890;45.380;11.028;2023-08-08T13:02:16;1.92;;;0.80;;
23434;SDS011;11890;45.380;11.028;2023-08-08T13:04:44;1.33;;;0.50;;
23434;SDS011;11890;45.380;11.028;2023-08-08T13:07:12;2.13;;;0.63;;
23434;SDS011;11890;45.380;11.028;2023-08-08T13:09:40;1.92;;;0.63;;
23434;SDS011;11890;45.380;11.028;2023-08-08T13:12:07;3.28;;;1.45;;
23434;SDS011;11890;45.380;11.028;2023-08-08T13:14:35;3.65;;;0.73;;
23434;SDS011;11890;45.380;11.028;2023-08-08T13:17:03;1.98;;;1.00;;
23434;SDS011;11890;45.380;11.028;2023-08-08T13:19:31;4.78;;;0.60;;
23434;SDS011;11890;45.380;11.028;2023-08-08T13:21:58;2.00;;;0.70;;
23434;SDS011;11890;45.380;11.028;2023-08-08T13:24:27;2.63;;;0.70;;
23434;SDS011;11890;45.380;11.028;2023-08-08T13:26:55;2.65;;;0.50;;
23434;SDS011;11890;45.380;11.028;2023-08-08T13:29:23;3.38;;;0.80;;
23434;SDS011;11890;45.380;11.028;2023-08-08T13:31:51;3.00;;;0.80;;
23434;SDS011;11890;45.380;11.028;2023-08-08T13:34:24;1.15;;;0.70;;
23434;SDS011;11890;45.380;11.028;2023-08-08T13:36:52;2.97;;;0.80;;
23434;SDS011;11890;45.380;11.028;2023-08-08T13:39:21;3.33;;;1.10;;
23434;SDS011;11890;45.380;11.028;2023-08-08T13:41:49;5.35;;;0.75;;
23434;SDS011;11890;45.380;11.028;2023-08-08T13:44:16;6.13;;;1.00;;
23434;SDS011;11890;45.380;11.028;2023-08-08T13:46:45;3.13;;;0.88;;
23434;SDS011;11890;45.380;11.028;2023-08-08T13:49:12;2.97;;;0.90;;
23434;SDS011;11890;45.380;11.028;2023-08-08T13:51:40;1.65;;;0.70;;
23434;SDS011;11890;45.380;11.028;2023-08-08T13:54:10;5.40;;;1.45;;
23434;SDS011;11890;45.380;11.028;2023-08-08T13:56:38;4.32;;;0.80;;
23434;SDS011;11890;45.380;11.028;2023-08-08T13:59:05;3.58;;;0.98;;
23434;SDS011;11890;45.380;11.028;2023-08-08T14:01:33;2.95;;;0.90;;
23434;SDS011;11890;45.380;11.028;2023-08-08T14:04:01;2.72;;;0.80;;
23434;SDS011;11890;45.380;11.028;2023-08-08T14:06:29;2.03;;;0.75;;
23434;SDS011;11890;45.380;11.028;2023-08-08T14:08:57;2.78;;;0.70;;
23434;SDS011;11890;45.380;11.028;2023-08-08T14:11:25;2.83;;;1.10;;
23434;SDS011;11890;45.380;11.028;2023-08-08T14:13:53;1.35;;;0.60;;
23434;SDS011;11890;45.380;11.028;2023-08-08T14:16:21;4.60;;;0.85;;
23434;SDS011;11890;45.380;11.028;2023-08-08T14:18:48;3.15;;;0.82;;
23434;SDS011;11890;45.380;11.028;2023-08-08T14:21:16;2.83;;;0.90;;
23434;SDS011;11890;45.380;11.028;2023-08-08T14:23:44;4.55;;;0.90;;
23434;SDS011;11890;45.380;11.028;2023-08-08T14:26:13;4.47;;;1.00;;
23434;SDS011;11890;45.380;11.028;2023-08-08T14:28:41;4.80;;;0.82;;
23434;SDS011;11890;45.380;11.028;2023-08-08T14:31:09;1.55;;;0.68;;
23434;SDS011;11890;45.380;11.028;2023-08-08T14:33:37;1.23;;;0.63;;
23434;SDS011;11890;45.380;11.028;2023-08-08T14:36:05;4.85;;;1.38;;
23434;SDS011;11890;45.380;11.028;2023-08-08T14:38:34;2.85;;;0.90;;
23434;SDS011;11890;45.380;11.028;2023-08-08T14:41:05;3.00;;;0.87;;
23434;SDS011;11890;45.380;11.028;2023-08-08T14:43:33;1.48;;;0.90;;
23434;SDS011;11890;45.380;11.028;2023-08-08T14:46:01;2.95;;;0.65;;
23434;SDS011;11890;45.380;11.028;2023-08-08T14:48:29;6.28;;;1.40;;
23434;SDS011;11890;45.380;11.028;2023-08-08T14:50:56;1.65;;;0.80;;
23434;SDS011;11890;45.380;11.028;2023-08-08T14:53:24;1.52;;;0.70;;